Time;durP1;ratioP1;P1;durP2;ratioP2;P2;SDS_P1;SDS_P2;PMS_P1;PMS_P2;Temp;Humidity;BMP_temperature;BMP_pressure;BME280_temperature;BME280_humidity;BME280_pressure;Samples;Min_cycle;Max_cycle;Signal;HPM_P1;HPM_P2
2022/08/28 00:02:55;;;;;;;20.02;10.88;;;19.10;99.90;;;;;;6273576;28;20049;-77
2022/08/28 00:05:56;;;;;;;21.02;9.75;;;19.20;99.90;;;;;;6274116;28;20056;-76
2022/08/28 00:08:58;;;;;;;18.95;10.35;;;19.20;99.90;;;;;;6273187;28;20502;-77
2022/08/28 00:12:02;;;;;;;13.75;10.05;;;19.30;99.90;;;;;;6273017;28;20507;-77
2022/08/28 00:15:07;;;;;;;14.15;9.15;;;19.40;99.90;;;;;;6273587;28;20045;-79
2022/08/28 00:18:09;;;;;;;14.43;8.48;;;19.50;99.90;;;;;;6273286;28;20049;-77
2022/08/28 00:21:11;;;;;;;25.48;10.30;;;19.60;99.90;;;;;;6273764;28;20060;-77
2022/08/28 00:24:13;;;;;;;18.23;10.25;;;19.60;99.90;;;;;;6272970;28;20052;-77
2022/08/28 00:30:38;;;;;;;16.77;10.30;;;19.40;99.90;;;;;;6272917;28;20041;-78
2022/08/28 00:33:40;;;;;;;13.95;9.07;;;19.40;99.90;;;;;;6273250;28;20064;-77
2022/08/28 00:36:42;;;;;;;19.73;10.32;;;19.50;99.90;;;;;;6272553;28;20047;-79
2022/08/28 00:39:44;;;;;;;20.85;10.43;;;19.50;99.90;;;;;;6272588;28;20056;-77
2022/08/28 00:42:47;;;;;;;17.52;10.23;;;19.60;99.90;;;;;;6272185;28;20114;-77
2022/08/28 00:45:49;;;;;;;17.35;10.05;;;19.70;99.90;;;;;;6273191;28;20139;-78
2022/08/28 00:48:51;;;;;;;16.52;9.38;;;19.70;99.90;;;;;;6272465;28;20052;-79
2022/08/28 00:52:07;;;;;;;19.98;10.55;;;19.70;99.90;;;;;;6272003;28;20422;-78
2022/08/28 00:55:12;;;;;;;16.15;10.75;;;19.70;99.90;;;;;;6271637;28;20041;-79
2022/08/28 00:58:16;;;;;;;15.43;9.55;;;19.80;99.90;;;;;;6271111;28;20057;-77
2022/08/28 01:01:18;;;;;;;20.90;9.80;;;19.80;99.90;;;;;;6272692;28;20045;-77
2022/08/28 01:04:21;;;;;;;12.82;9.38;;;19.80;99.90;;;;;;6271802;28;20396;-77
2022/08/28 01:07:23;;;;;;;18.58;9.13;;;19.90;99.90;;;;;;6271756;28;20045;-78
2022/08/28 01:10:27;;;;;;;18.60;10.88;;;20.00;99.90;;;;;;6272227;28;20052;-77
2022/08/28 01:13:32;;;;;;;15.23;9.85;;;20.00;99.90;;;;;;6272474;28;20049;-77
2022/08/28 01:16:35;;;;;;;13.05;9.80;;;20.10;99.90;;;;;;6272175;28;20067;-79
2022/08/28 01:19:41;;;;;;;15.57;9.27;;;20.10;99.90;;;;;;6271592;28;20045;-77
2022/08/28 01:22:50;;;;;;;11.25;8.57;;;20.20;99.90;;;;;;6271446;28;20501;-78
2022/08/28 01:25:54;;;;;;;13.38;8.27;;;20.30;99.90;;;;;;6272427;28;20056;-79
2022/08/28 01:28:58;;;;;;;15.23;9.20;;;20.30;99.90;;;;;;6271527;28;20052;-76
2022/08/28 01:32:00;;;;;;;24.00;9.20;;;20.40;99.90;;;;;;6271617;28;20048;-77
2022/08/28 01:35:03;;;;;;;13.82;10.38;;;20.40;99.90;;;;;;6271562;28;20047;-77
2022/08/28 01:38:05;;;;;;;25.58;9.50;;;20.50;99.90;;;;;;6271027;28;20078;-77
2022/08/28 01:41:08;;;;;;;18.23;9.20;;;20.50;99.90;;;;;;6272636;28;20041;-77
2022/08/28 01:44:10;;;;;;;13.85;9.15;;;20.50;99.90;;;;;;6275852;28;20045;-80
2022/08/28 01:47:11;;;;;;;13.70;8.45;;;20.60;99.90;;;;;;6276332;28;20037;-79
2022/08/28 01:50:17;;;;;;;10.13;7.78;;;20.60;99.90;;;;;;6276394;28;20053;-79
2022/08/28 01:53:22;;;;;;;10.88;7.50;;;20.50;99.90;;;;;;6276393;28;20044;-80
2022/08/28 01:56:25;;;;;;;14.23;7.85;;;20.50;99.90;;;;;;6276620;28;20411;-80
2022/08/28 01:59:27;;;;;;;12.15;7.53;;;20.50;99.90;;;;;;6275858;28;20071;-79
2022/08/28 02:02:30;;;;;;;10.65;7.97;;;20.50;99.90;;;;;;6275650;28;20495;-79
2022/08/28 02:05:33;;;;;;;10.45;7.88;;;20.40;99.90;;;;;;6275197;28;20072;-79
2022/08/28 02:08:35;;;;;;;10.77;7.97;;;20.50;99.90;;;;;;6275235;28;20049;-79
2022/08/28 02:11:41;;;;;;;10.02;8.20;;;20.40;99.90;;;;;;6274666;28;20051;-79
2022/08/28 02:14:43;;;;;;;13.82;8.05;;;20.40;99.90;;;;;;6275615;28;20048;-79
2022/08/28 02:17:45;;;;;;;11.82;7.47;;;20.40;99.90;;;;;;6275828;28;20057;-79
2022/08/28 02:20:47;;;;;;;13.50;8.18;;;20.30;99.90;;;;;;6274425;28;20410;-78
2022/08/28 02:23:48;;;;;;;11.68;6.45;;;20.30;99.90;;;;;;6274819;28;20041;-79
2022/08/28 02:26:51;;;;;;;11.85;8.02;;;20.20;99.90;;;;;;6275649;28;20085;-80
2022/08/28 02:29:54;;;;;;;13.45;8.38;;;20.10;99.90;;;;;;6275172;28;20048;-78
2022/08/28 02:32:56;;;;;;;30.65;11.35;;;20.00;99.90;;;;;;6274721;28;20041;-79
2022/08/28 02:35:58;;;;;;;12.52;8.50;;;20.00;99.90;;;;;;6274978;28;20414;-79
2022/08/28 02:39:00;;;;;;;17.45;8.48;;;19.80;99.90;;;;;;6274691;28;20051;-79
2022/08/28 02:42:03;;;;;;;15.57;8.20;;;19.70;99.90;;;;;;6274508;28;20406;-78
2022/08/28 02:45:07;;;;;;;22.60;9.57;;;19.60;99.90;;;;;;6275153;28;20056;-79
2022/08/28 02:48:09;;;;;;;16.25;9.18;;;19.50;99.90;;;;;;6274113;28;20056;-79
2022/08/28 02:51:12;;;;;;;18.73;9.07;;;19.50;99.90;;;;;;6275142;28;20406;-78
2022/08/28 02:54:14;;;;;;;16.67;9.93;;;19.50;99.90;;;;;;6273694;28;20049;-78
2022/08/28 02:57:17;;;;;;;17.65;8.55;;;19.50;99.90;;;;;;6274749;28;20053;-76
2022/08/28 03:00:22;;;;;;;16.67;9.63;;;19.40;99.90;;;;;;6275517;28;20055;-80
2022/08/28 03:03:23;;;;;;;15.55;9.70;;;19.30;99.90;;;;;;6275230;28;20075;-80
2022/08/28 03:06:25;;;;;;;18.42;11.15;;;19.20;99.90;;;;;;6274224;28;20041;-79
2022/08/28 03:09:27;;;;;;;17.35;10.60;;;19.30;99.90;;;;;;6275993;28;20056;-79
2022/08/28 03:12:30;;;;;;;17.77;10.40;;;19.30;99.90;;;;;;6275450;28;20044;-78
2022/08/28 03:15:32;;;;;;;20.27;9.60;;;19.30;99.90;;;;;;6275284;28;20051;-80
2022/08/28 03:18:34;;;;;;;13.82;9.13;;;19.30;99.90;;;;;;6276899;28;20491;-80
2022/08/28 03:21:36;;;;;;;17.38;10.10;;;19.40;99.90;;;;;;6279337;28;20123;-80
2022/08/28 03:24:37;;;;;;;16.52;10.73;;;19.40;99.90;;;;;;6279253;28;20426;-80
2022/08/28 03:27:40;;;;;;;17.20;10.00;;;19.50;99.90;;;;;;6279353;28;20049;-78
2022/08/28 03:30:42;;;;;;;12.93;9.60;;;19.50;99.90;;;;;;6279284;28;20049;-80
2022/08/28 03:33:44;;;;;;;13.25;9.52;;;19.50;99.90;;;;;;6279381;28;20041;-80
2022/08/28 03:36:46;;;;;;;19.65;10.07;;;19.50;99.90;;;;;;6279341;28;20052;-80
2022/08/28 03:39:48;;;;;;;16.23;9.93;;;19.50;99.90;;;;;;6278421;28;20060;-79
2022/08/28 03:42:51;;;;;;;24.88;9.95;;;19.60;99.90;;;;;;6278364;28;20041;-78
2022/08/28 03:45:56;;;;;;;20.92;10.05;;;19.60;99.90;;;;;;6279351;28;20055;-79
2022/08/28 03:48:59;;;;;;;15.27;10.90;;;19.70;99.90;;;;;;6277946;28;20135;-78
2022/08/28 03:52:01;;;;;;;14.05;10.88;;;19.80;99.90;;;;;;6278001;28;20048;-79
2022/08/28 03:55:03;;;;;;;17.48;11.25;;;19.80;99.90;;;;;;6278483;28;20055;-79
2022/08/28 03:58:06;;;;;;;22.90;9.93;;;20.00;99.90;;;;;;6278597;28;20430;-79
2022/08/28 04:01:09;;;;;;;14.82;10.30;;;20.00;99.90;;;;;;6279264;28;20045;-78
2022/08/28 04:04:11;;;;;;;20.73;10.10;;;20.10;99.90;;;;;;6277907;28;20073;-78
2022/08/28 04:07:12;;;;;;;16.73;10.27;;;20.10;99.90;;;;;;6277960;28;20048;-80
2022/08/28 04:10:14;;;;;;;23.80;10.65;;;19.90;99.90;;;;;;6278269;28;20404;-80
2022/08/28 04:13:19;;;;;;;18.35;10.43;;;20.00;99.90;;;;;;6278247;28;20483;-80
2022/08/28 04:16:21;;;;;;;17.27;10.45;;;20.00;99.90;;;;;;6278299;28;20047;-78
2022/08/28 04:19:23;;;;;;;22.42;11.82;;;20.00;99.90;;;;;;6278015;28;20518;-80
2022/08/28 04:22:25;;;;;;;14.90;11.00;;;20.00;99.90;;;;;;6278095;28;20052;-80
2022/08/28 04:25:26;;;;;;;17.33;11.10;;;20.00;99.90;;;;;;6278082;28;20060;-80
2022/08/28 04:28:31;;;;;;;22.45;10.45;;;20.10;99.90;;;;;;6278010;28;20048;-79
2022/08/28 04:31:33;;;;;;;19.95;11.68;;;20.20;99.90;;;;;;6277283;28;20045;-80
2022/08/28 04:34:37;;;;;;;15.93;10.00;;;20.20;99.90;;;;;;6277212;28;20037;-80
2022/08/28 04:37:39;;;;;;;19.02;10.20;;;20.10;99.90;;;;;;6278009;28;20055;-80
2022/08/28 04:40:41;;;;;;;17.52;11.13;;;20.30;99.90;;;;;;6277011;28;20045;-79
2022/08/28 04:43:45;;;;;;;16.23;10.07;;;20.30;99.90;;;;;;6276860;28;20056;-80
2022/08/28 04:46:46;;;;;;;15.32;10.73;;;20.30;99.90;;;;;;6276963;28;20041;-78
2022/08/28 04:49:48;;;;;;;15.88;9.80;;;20.40;99.90;;;;;;6276241;28;20056;-80
2022/08/28 04:52:50;;;;;;;17.45;10.77;;;20.50;99.90;;;;;;6276581;28;20045;-80
2022/08/28 04:55:53;;;;;;;19.30;11.18;;;20.50;99.90;;;;;;6276860;28;20055;-79
2022/08/28 04:58:56;;;;;;;14.25;10.50;;;20.50;99.90;;;;;;6276517;28;20045;-80
2022/08/28 05:01:58;;;;;;;15.93;10.60;;;20.50;99.90;;;;;;6277375;28;20045;-79
2022/08/28 05:04:59;;;;;;;15.55;9.75;;;20.50;99.90;;;;;;6276380;28;20047;-79
2022/08/28 05:08:01;;;;;;;14.70;9.68;;;20.60;99.90;;;;;;6275687;28;20044;-80
2022/08/28 05:11:10;;;;;;;17.42;10.45;;;20.60;99.90;;;;;;6276535;28;20126;-78
2022/08/28 05:14:15;;;;;;;13.77;9.48;;;20.70;99.90;;;;;;6277516;28;20056;-80
2022/08/28 05:17:17;;;;;;;10.82;8.57;;;20.70;99.90;;;;;;6277522;28;20048;-80
2022/08/28 05:20:18;;;;;;;16.25;10.00;;;20.70;99.90;;;;;;6276052;28;20056;-79
2022/08/28 05:23:20;;;;;;;13.57;10.55;;;20.70;99.90;;;;;;6275276;28;20507;-79
2022/08/28 05:26:22;;;;;;;12.05;9.50;;;20.60;99.90;;;;;;6276744;28;20060;-78
2022/08/28 05:29:25;;;;;;;16.70;9.95;;;20.50;99.90;;;;;;6276582;28;20095;-78
2022/08/28 05:32:27;;;;;;;13.98;10.18;;;20.50;99.90;;;;;;6276671;28;20045;-79
2022/08/28 05:35:29;;;;;;;14.32;10.20;;;20.60;99.90;;;;;;6276404;28;20530;-80
2022/08/28 05:38:31;;;;;;;14.52;9.80;;;20.70;99.90;;;;;;6276367;28;20049;-79
2022/08/28 05:41:33;;;;;;;21.10;10.43;;;20.80;99.90;;;;;;6275810;28;20049;-78
2022/08/28 05:44:36;;;;;;;15.48;10.23;;;20.90;99.90;;;;;;6276379;28;20052;-78
2022/08/28 05:47:38;;;;;;;18.48;9.52;;;21.10;99.90;;;;;;6275404;28;20041;-79
2022/08/28 05:50:39;;;;;;;15.55;10.30;;;21.20;99.90;;;;;;6275925;28;20521;-79
2022/08/28 05:53:43;;;;;;;16.50;9.40;;;21.10;99.90;;;;;;6276011;28;20049;-78
2022/08/28 05:56:45;;;;;;;15.88;9.98;;;21.10;99.90;;;;;;6275854;28;20067;-80
2022/08/28 05:59:50;;;;;;;14.23;9.55;;;21.30;99.90;;;;;;6275273;28;20051;-78
2022/08/28 06:02:51;;;;;;;19.90;9.38;;;21.50;99.90;;;;;;6275517;28;20526;-80
2022/08/28 06:05:55;;;;;;;12.82;8.52;;;21.60;99.90;;;;;;6276003;28;20144;-80
2022/08/28 06:08:57;;;;;;;8.98;7.32;;;21.70;99.90;;;;;;6276517;28;20048;-79
2022/08/28 06:12:01;;;;;;;15.70;8.07;;;21.80;99.90;;;;;;6277554;28;20045;-80
2022/08/28 06:15:05;;;;;;;8.65;6.53;;;21.90;99.90;;;;;;6276914;28;20045;-79
2022/08/28 06:18:07;;;;;;;8.77;6.07;;;22.00;99.90;;;;;;6275485;28;20139;-80
2022/08/28 06:21:08;;;;;;;10.38;7.07;;;22.00;99.90;;;;;;6276803;28;20051;-78
2022/08/28 06:24:12;;;;;;;12.57;5.82;;;22.00;99.90;;;;;;6275768;28;20087;-78
2022/08/28 06:27:13;;;;;;;12.95;5.63;;;22.00;99.90;;;;;;6274890;28;20396;-79
2022/08/28 06:30:17;;;;;;;7.68;4.90;;;22.00;99.90;;;;;;6275151;28;20044;-79
2022/08/28 06:33:20;;;;;;;10.80;4.85;;;22.00;99.90;;;;;;6275543;28;20044;-80
2022/08/28 06:36:22;;;;;;;8.20;4.25;;;22.00;99.90;;;;;;6275337;28;20056;-80
2022/08/28 06:39:24;;;;;;;7.22;3.90;;;22.00;99.90;;;;;;6274690;28;20053;-80
2022/08/28 06:42:27;;;;;;;6.85;4.35;;;22.20;99.90;;;;;;6276006;28;20041;-79
2022/08/28 06:45:30;;;;;;;7.40;4.07;;;22.20;99.90;;;;;;6275925;28;20094;-80
2022/08/28 06:48:32;;;;;;;6.40;4.15;;;22.30;99.90;;;;;;6274513;28;20110;-79
2022/08/28 06:51:34;;;;;;;11.00;4.22;;;22.30;99.90;;;;;;6274303;28;20049;-78
2022/08/28 06:54:36;;;;;;;5.45;3.47;;;22.30;99.90;;;;;;6279147;28;20041;-80
2022/08/28 06:57:38;;;;;;;5.47;3.42;;;22.50;99.90;;;;;;6279804;28;20061;-79
2022/08/28 07:00:41;;;;;;;6.60;4.53;;;22.80;99.90;;;;;;6280244;28;20494;-80
2022/08/28 07:03:43;;;;;;;4.43;3.20;;;22.70;99.90;;;;;;6279233;28;20178;-79
2022/08/28 07:06:48;;;;;;;6.65;3.72;;;22.60;99.90;;;;;;6279462;28;20049;-80
2022/08/28 07:09:50;;;;;;;7.70;2.88;;;22.60;99.90;;;;;;6278588;28;20129;-80
2022/08/28 07:12:51;;;;;;;3.70;3.10;;;22.70;99.90;;;;;;6278596;28;20048;-80
2022/08/28 07:15:55;;;;;;;7.05;3.03;;;22.90;99.90;;;;;;6279730;28;20049;-80
2022/08/28 07:18:57;;;;;;;6.80;3.70;;;23.20;99.90;;;;;;6280785;28;20040;-80
2022/08/28 07:21:59;;;;;;;10.50;4.85;;;23.70;99.90;;;;;;6280330;28;20093;-80
2022/08/28 07:25:01;;;;;;;5.85;3.85;;;23.90;99.70;;;;;;6280023;28;20414;-80
2022/08/28 07:28:03;;;;;;;5.10;2.75;;;24.00;99.40;;;;;;6280870;28;20132;-80
2022/08/28 07:31:09;;;;;;;5.90;2.78;;;24.20;99.00;;;;;;6281715;28;20045;-81
2022/08/28 07:34:12;;;;;;;3.72;2.50;;;24.30;99.00;;;;;;6280619;28;20048;-78
2022/08/28 07:37:14;;;;;;;5.18;2.45;;;24.80;98.10;;;;;;6280462;28;20055;-77
2022/08/28 07:40:18;;;;;;;5.78;2.85;;;25.40;96.70;;;;;;6279885;28;20503;-80
2022/08/28 07:46:41;;;;;;;4.93;2.95;;;26.50;94.20;;;;;;6273961;28;20033;-77
2022/08/28 07:49:43;;;;;;;4.68;2.75;;;27.10;93.70;;;;;;6274343;28;20045;-77
2022/08/28 07:52:45;;;;;;;6.78;2.97;;;27.30;90.70;;;;;;6273933;28;20048;-78
2022/08/28 07:55:50;;;;;;;5.63;2.83;;;27.20;90.50;;;;;;6273835;28;20049;-78
2022/08/28 07:58:52;;;;;;;4.15;2.85;;;27.30;89.70;;;;;;6273513;28;20036;-77
2022/08/28 08:01:55;;;;;;;7.07;2.85;;;27.40;89.90;;;;;;6274243;28;20056;-78
2022/08/28 08:04:57;;;;;;;5.63;3.42;;;27.60;88.60;;;;;;6274520;28;20048;-78
2022/08/28 08:07:58;;;;;;;4.50;2.72;;;28.20;86.00;;;;;;6273226;28;20133;-77
2022/08/28 08:11:02;;;;;;;3.40;2.88;;;28.60;83.80;;;;;;6273167;28;20419;-78
2022/08/28 08:14:04;;;;;;;5.63;3.00;;;28.60;85.40;;;;;;6273316;28;20044;-78
2022/08/28 08:17:09;;;;;;;5.18;2.45;;;28.60;85.20;;;;;;6273939;28;20187;-81
2022/08/28 08:20:11;;;;;;;9.05;3.90;;;29.00;81.90;;;;;;6273531;28;20052;-78
2022/08/28 08:23:14;;;;;;;5.97;2.70;;;29.20;81.30;;;;;;6273049;28;20056;-78
2022/08/28 08:26:18;;;;;;;7.32;2.60;;;28.90;80.30;;;;;;6246151;28;20056;-79
2022/08/28 08:29:21;;;;;;;3.92;2.80;;;28.70;82.00;;;;;;6272068;28;20091;-77
2022/08/28 08:32:24;;;;;;;5.70;3.17;;;28.50;80.50;;;;;;6277708;28;20052;-77
2022/08/28 08:35:26;;;;;;;7.35;3.50;;;28.40;81.50;;;;;;6273892;28;20045;-79
2022/08/28 08:38:30;;;;;;;3.97;3.15;;;28.00;81.70;;;;;;6272459;28;20526;-77
2022/08/28 08:41:37;;;;;;;7.00;3.30;;;27.70;83.90;;;;;;6274375;28;20056;-78
2022/08/28 08:44:43;;;;;;;4.75;3.00;;;27.70;85.20;;;;;;6268077;28;20498;-77
2022/08/28 08:47:50;;;;;;;7.63;4.00;;;27.70;82.80;;;;;;6271717;28;20410;-78
2022/08/28 08:50:53;;;;;;;5.07;3.23;;;27.30;84.40;;;;;;6272575;28;20045;-78
2022/08/28 08:54:02;;;;;;;5.82;2.97;;;27.50;84.30;;;;;;6273483;28;20081;-78
2022/08/28 08:57:04;;;;;;;7.07;2.90;;;28.20;81.20;;;;;;6272673;28;20823;-78
2022/08/28 09:00:09;;;;;;;6.43;3.13;;;28.20;80.50;;;;;;6272573;28;20439;-79
2022/08/28 09:03:18;;;;;;;6.30;3.45;;;28.30;82.20;;;;;;6274211;28;20087;-80
2022/08/28 09:06:28;;;;;;;8.10;3.10;;;29.10;78.90;;;;;;6274541;28;20055;-81
2022/08/28 09:09:33;;;;;;;4.68;3.00;;;29.20;76.30;;;;;;6275127;28;20056;-81
2022/08/28 09:12:48;;;;;;;8.30;3.40;;;28.60;76.00;;;;;;6274585;28;20049;-78
2022/08/28 09:15:51;;;;;;;8.50;3.08;;;27.90;78.60;;;;;;6273214;28;20152;-81
2022/08/28 09:18:56;;;;;;;7.47;3.33;;;27.80;82.20;;;;;;6274699;28;20118;-81
2022/08/28 09:21:58;;;;;;;8.25;3.42;;;27.80;78.90;;;;;;6274637;28;20059;-81
2022/08/28 09:25:00;;;;;;;7.95;3.28;;;27.40;78.80;;;;;;6274218;28;20122;-80
2022/08/28 09:28:08;;;;;;;5.38;2.92;;;27.30;79.40;;;;;;6273533;28;20186;-79
2022/08/28 09:31:15;;;;;;;5.22;2.95;;;27.30;80.80;;;;;;6274576;28;20045;-78
2022/08/28 09:34:28;;;;;;;7.25;2.50;;;27.10;80.50;;;;;;6272745;28;20048;-79
2022/08/28 09:37:31;;;;;;;22.52;3.63;;;27.80;80.80;;;;;;6272668;28;20045;-77
2022/08/28 09:43:49;;;;;;;3.97;2.53;;;29.10;73.10;;;;;;6271411;28;20048;-78
2022/08/28 09:46:51;;;;;;;7.35;2.72;;;29.30;72.00;;;;;;6272570;28;20049;-80
2022/08/28 09:49:54;;;;;;;5.18;2.90;;;29.80;70.00;;;;;;6273289;28;20068;-78
2022/08/28 09:52:58;;;;;;;7.55;4.85;;;29.80;67.90;;;;;;6273461;28;20521;-80
2022/08/28 09:56:09;;;;;;;4.45;3.00;;;29.00;69.50;;;;;;6273099;28;20056;-78
2022/08/28 09:59:14;;;;;;;4.25;2.47;;;28.30;72.00;;;;;;6272469;28;20124;-79
2022/08/28 10:02:24;;;;;;;7.93;2.50;;;27.90;73.50;;;;;;6271952;28;20044;-79
2022/08/28 10:05:37;;;;;;;3.97;2.83;;;27.90;74.40;;;;;;6274169;28;20494;-79
2022/08/28 10:08:57;;;;;;;6.97;3.38;;;28.00;74.60;;;;;;6272363;28;20048;-79
2022/08/28 10:12:07;;;;;;;5.68;2.92;;;27.90;72.00;;;;;;6273093;28;20057;-81
2022/08/28 10:15:17;;;;;;;4.60;2.53;;;27.90;72.70;;;;;;6272389;28;20045;-79
2022/08/28 10:18:33;;;;;;;3.08;2.20;;;28.30;72.90;;;;;;6271613;28;20049;-79
2022/08/28 10:21:43;;;;;;;5.35;2.50;;;29.00;70.40;;;;;;6271964;28;20087;-79
2022/08/28 10:25:02;;;;;;;5.07;2.60;;;28.90;68.80;;;;;;6267581;28;20037;-79
2022/08/28 10:28:25;;;;;;;6.90;2.65;;;28.70;69.60;;;;;;6271353;28;20041;-78
2022/08/28 10:31:35;;;;;;;4.13;2.65;;;28.60;68.40;;;;;;6274257;28;20048;-77
2022/08/28 10:34:50;;;;;;;10.18;2.50;;;29.10;68.80;;;;;;6275719;28;20041;-79
2022/08/28 10:38:03;;;;;;;5.28;3.08;;;29.80;64.70;;;;;;6277358;28;20060;-79
2022/08/28 10:41:09;;;;;;;3.58;1.88;;;30.10;62.90;;;;;;6274618;28;20060;-79
2022/08/28 10:44:17;;;;;;;5.78;2.05;;;30.00;62.60;;;;;;6276457;28;20041;-79
2022/08/28 10:47:20;;;;;;;2.83;1.52;;;29.80;63.10;;;;;;6273970;28;20051;-79
2022/08/28 10:50:26;;;;;;;3.22;2.38;;;30.10;63.10;;;;;;6277892;28;20045;-79
2022/08/28 10:53:37;;;;;;;9.25;4.13;;;29.80;62.60;;;;;;6276537;28;20045;-80
2022/08/28 10:56:43;;;;;;;4.03;2.13;;;29.30;63.50;;;;;;6277185;28;20049;-77
2022/08/28 10:59:47;;;;;;;3.60;2.00;;;29.30;64.50;;;;;;6276463;28;20056;-78
2022/08/28 11:02:52;;;;;;;5.57;2.20;;;29.70;62.70;;;;;;6278614;28;20049;-77
2022/08/28 11:05:56;;;;;;;5.97;2.30;;;29.80;63.70;;;;;;6281838;28;20045;-79
2022/08/28 11:09:23;;;;;;;4.97;2.17;;;30.30;61.60;;;;;;6276472;28;20511;-78
2022/08/28 11:12:41;;;;;;;8.48;2.10;;;30.40;61.30;;;;;;6276491;28;20437;-78
2022/08/28 11:15:53;;;;;;;7.40;2.28;;;30.10;60.10;;;;;;6276216;28;20693;-79
2022/08/28 11:19:26;;;;;;;3.40;2.15;;;30.00;61.60;;;;;;6275693;28;20037;-78
2022/08/28 11:22:33;;;;;;;3.65;2.15;;;30.20;60.90;;;;;;6275961;28;20125;-78
2022/08/28 11:25:46;;;;;;;5.70;2.22;;;30.60;60.00;;;;;;6276698;28;20379;-78
2022/08/28 11:28:48;;;;;;;5.32;2.22;;;31.10;60.00;;;;;;6276319;28;20049;-79
2022/08/28 11:32:27;;;;;;;3.58;1.83;;;31.70;59.20;;;;;;6276740;28;20523;-79
2022/08/28 11:35:49;;;;;;;;;;;32.40;56.50;;;;;;6276256;28;20120;-78
2022/08/28 11:39:18;;;;;;;5.25;2.53;;;32.60;55.70;;;;;;6269100;28;19921;-79
2022/08/28 11:42:37;;;;;;;7.32;2.28;;;32.30;54.20;;;;;;6276282;28;20438;-79
2022/08/28 11:46:05;;;;;;;4.60;2.13;;;31.30;56.50;;;;;;6277389;28;20049;-79
2022/08/28 11:49:38;;;;;;;2.47;1.70;;;30.60;57.80;;;;;;6275574;28;20052;-78
2022/08/28 11:53:04;;;;;;;4.80;2.20;;;30.40;58.70;;;;;;6273961;28;20064;-78
2022/08/28 11:56:32;;;;;;;5.40;2.60;;;30.40;57.90;;;;;;6268423;28;20107;-79
2022/08/28 11:59:52;;;;;;;3.42;2.15;;;30.20;58.00;;;;;;6275113;28;20045;-79
2022/08/28 12:03:10;;;;;;;5.47;2.22;;;30.10;59.00;;;;;;6268787;28;20045;-79
2022/08/28 12:06:13;;;;;;;3.22;1.90;;;30.10;59.40;;;;;;6274919;28;20041;-78
2022/08/28 12:09:40;;;;;;;2.67;1.73;;;30.10;59.00;;;;;;6277474;28;20045;-80
2022/08/28 12:12:54;;;;;;;4.82;1.80;;;30.50;57.90;;;;;;6276113;28;20052;-78
2022/08/28 12:16:05;;;;;;;3.10;1.70;;;31.00;57.60;;;;;;6276112;28;20056;-80
2022/08/28 12:19:07;;;;;;;4.30;1.50;;;31.70;56.50;;;;;;6275330;28;20051;-79
2022/08/28 12:22:11;;;;;;;4.18;2.30;;;32.40;56.10;;;;;;6275860;28;20048;-80
2022/08/28 12:25:24;;;;;;;6.70;2.10;;;33.10;54.60;;;;;;6274868;28;20049;-80
2022/08/28 12:28:30;;;;;;;3.13;1.75;;;33.10;53.50;;;;;;6275271;28;20049;-79
2022/08/28 12:32:11;;;;;;;5.07;2.40;;;33.20;53.50;;;;;;6275621;28;20079;-79
2022/08/28 12:35:17;;;;;;;6.18;2.25;;;32.70;53.80;;;;;;6274896;28;20413;-79
2022/08/28 12:38:21;;;;;;;5.35;2.03;;;32.50;53.90;;;;;;6275404;28;20045;-79
2022/08/28 12:41:24;;;;;;;3.33;2.00;;;32.40;53.80;;;;;;6275550;28;20510;-79
2022/08/28 12:44:29;;;;;;;3.63;2.13;;;32.20;54.20;;;;;;6274927;28;20044;-79
2022/08/28 12:47:33;;;;;;;9.50;2.47;;;31.90;54.50;;;;;;6274483;28;20057;-79
2022/08/28 12:50:37;;;;;;;3.97;2.05;;;31.70;55.20;;;;;;6273817;28;20114;-79
2022/08/28 12:53:42;;;;;;;3.10;1.98;;;31.70;54.60;;;;;;6275134;28;20063;-79
2022/08/28 12:56:44;;;;;;;2.00;1.70;;;31.90;53.50;;;;;;6274990;28;20052;-79
2022/08/28 12:59:47;;;;;;;4.57;1.92;;;31.70;51.90;;;;;;6273906;28;20045;-80
2022/08/28 13:02:53;;;;;;;5.80;2.50;;;31.40;52.70;;;;;;6273763;28;20051;-79
2022/08/28 13:05:58;;;;;;;8.23;2.28;;;31.00;54.00;;;;;;6274404;28;20055;-79
2022/08/28 13:09:02;;;;;;;2.97;1.98;;;31.10;54.20;;;;;;6274614;28;20525;-80
2022/08/28 13:12:05;;;;;;;3.80;1.88;;;31.40;52.90;;;;;;6275473;28;20056;-79
2022/08/28 13:15:08;;;;;;;4.38;2.10;;;31.40;52.60;;;;;;6274705;28;20043;-78
2022/08/28 13:18:36;;;;;;;3.28;1.70;;;31.20;52.40;;;;;;6274273;28;20049;-78
2022/08/28 13:21:51;;;;;;;2.97;1.58;;;31.40;52.70;;;;;;6273739;28;20511;-79
2022/08/28 13:24:59;;;;;;;3.95;1.73;;;31.90;53.20;;;;;;6274496;28;20450;-78
2022/08/28 13:28:04;;;;;;;3.03;2.03;;;32.30;52.90;;;;;;6273746;28;20423;-78
2022/08/28 13:31:08;;;;;;;3.65;1.63;;;32.40;52.30;;;;;;6274247;28;20067;-79
2022/08/28 13:34:24;;;;;;;2.75;1.55;;;32.80;51.70;;;;;;6274102;28;20048;-78
2022/08/28 13:37:45;;;;;;;5.75;1.25;;;32.70;48.00;;;;;;6274434;28;20053;-79
2022/08/28 13:40:51;;;;;;;3.60;1.25;;;32.20;49.70;;;;;;6273916;28;20060;-77
2022/08/28 13:43:53;;;;;;;5.78;2.22;;;32.00;50.70;;;;;;6273666;28;20091;-78
2022/08/28 13:46:55;;;;;;;5.35;1.60;;;32.20;51.20;;;;;;6274170;28;20157;-78
2022/08/28 13:49:58;;;;;;;2.83;1.63;;;32.30;50.00;;;;;;6271204;28;20431;-78
2022/08/28 13:53:00;;;;;;;4.40;1.90;;;32.70;50.20;;;;;;6268069;28;20143;-78
2022/08/28 13:56:02;;;;;;;2.58;1.73;;;33.00;49.40;;;;;;6269886;28;20045;-78
2022/08/28 13:59:04;;;;;;;3.95;1.55;;;33.10;49.50;;;;;;6268834;28;20041;-78
2022/08/28 14:05:29;;;;;;;2.97;1.25;;;33.30;47.80;;;;;;6269642;28;20057;-78
2022/08/28 14:08:31;;;;;;;2.92;1.63;;;32.90;48.10;;;;;;6270142;28;20045;-78
2022/08/28 14:11:33;;;;;;;3.03;1.80;;;32.90;47.80;;;;;;6269431;28;20480;-78
2022/08/28 14:14:35;;;;;;;3.35;1.63;;;32.60;48.00;;;;;;6269232;28;20041;-77
2022/08/28 14:17:36;;;;;;;4.05;1.73;;;32.10;48.20;;;;;;6269594;28;20074;-77
2022/08/28 14:20:40;;;;;;;1.80;1.48;;;31.70;49.00;;;;;;6269186;28;20064;-78
2022/08/28 14:23:41;;;;;;;6.78;2.17;;;31.70;49.00;;;;;;6269381;28;20596;-78
2022/08/28 14:26:44;;;;;;;5.13;1.58;;;31.80;50.10;;;;;;6269713;28;20060;-78
2022/08/28 14:29:46;;;;;;;3.78;1.75;;;31.70;51.30;;;;;;6270639;28;20107;-80
2022/08/28 14:32:47;;;;;;;4.93;1.85;;;31.70;51.90;;;;;;6274036;28;20045;-80
2022/08/28 14:35:50;;;;;;;2.95;1.83;;;31.90;51.30;;;;;;6275126;28;20055;-79
2022/08/28 14:38:54;;;;;;;3.92;1.88;;;31.90;51.10;;;;;;6272903;28;20056;-79
2022/08/28 14:41:56;;;;;;;3.08;1.50;;;32.00;51.70;;;;;;6273338;28;20049;-79
2022/08/28 14:44:58;;;;;;;5.03;1.75;;;32.00;50.70;;;;;;6273210;28;20045;-79
2022/08/28 14:47:59;;;;;;;2.72;1.42;;;31.80;50.40;;;;;;6272735;28;20052;-79
2022/08/28 14:51:03;;;;;;;5.25;1.65;;;31.60;51.20;;;;;;6273145;28;20495;-78
2022/08/28 14:54:06;;;;;;;4.57;1.85;;;31.90;50.40;;;;;;6254938;28;20192;-80
2022/08/28 14:57:08;;;;;;;1.95;1.65;;;31.80;50.50;;;;;;6247890;28;20045;-79
2022/08/28 15:00:11;;;;;;;5.65;2.03;;;31.80;50.20;;;;;;6266935;28;20051;-78
2022/08/28 15:03:13;;;;;;;3.47;1.77;;;32.10;49.90;;;;;;6272561;28;20045;-78
2022/08/28 15:06:17;;;;;;;2.38;1.58;;;32.40;48.70;;;;;;6272552;28;20053;-79
2022/08/28 15:09:19;;;;;;;8.10;1.80;;;32.50;48.70;;;;;;6272519;28;20049;-79
2022/08/28 15:12:21;;;;;;;7.32;2.03;;;32.20;48.50;;;;;;6272873;28;20546;-78
2022/08/28 15:15:23;;;;;;;3.55;1.60;;;31.90;47.70;;;;;;6276412;28;20044;-80
2022/08/28 15:18:24;;;;;;;10.77;2.90;;;31.60;48.70;;;;;;6276313;28;20040;-79
2022/08/28 15:21:31;;;;;;;3.70;1.75;;;31.80;49.00;;;;;;6276914;28;20052;-78
2022/08/28 15:24:34;;;;;;;7.68;1.90;;;31.90;48.30;;;;;;6276691;28;20045;-79
2022/08/28 15:27:36;;;;;;;3.28;1.70;;;32.00;49.40;;;;;;6276777;28;20045;-79
2022/08/28 15:30:38;;;;;;;3.95;2.00;;;32.20;49.50;;;;;;6276754;28;20045;-79
2022/08/28 15:33:40;;;;;;;2.95;1.88;;;32.50;49.60;;;;;;6275923;28;20418;-79
2022/08/28 15:36:45;;;;;;;2.38;1.85;;;32.50;49.50;;;;;;6276771;28;20125;-79
2022/08/28 15:43:06;;;;;;;4.65;2.35;;;31.90;49.10;;;;;;6276081;28;20037;-79
2022/08/28 15:46:11;;;;;;;5.60;1.77;;;31.50;49.20;;;;;;6276839;28;20487;-78
2022/08/28 15:49:13;;;;;;;2.40;1.95;;;31.10;50.00;;;;;;6276583;28;20087;-80
2022/08/28 15:52:17;;;;;;;5.70;2.80;;;30.70;50.00;;;;;;6276547;28;20044;-79
2022/08/28 15:55:18;;;;;;;3.05;2.00;;;30.20;50.90;;;;;;6275258;28;20052;-78
2022/08/28 15:58:20;;;;;;;3.47;1.85;;;29.70;51.70;;;;;;6275521;28;20045;-78
2022/08/28 16:01:22;;;;;;;5.47;2.28;;;29.40;52.70;;;;;;6275353;28;20056;-78
2022/08/28 16:04:24;;;;;;;3.45;1.58;;;29.20;52.40;;;;;;6276550;28;20569;-78
2022/08/28 16:07:27;;;;;;;5.03;2.00;;;29.00;53.30;;;;;;6275469;28;20422;-79
2022/08/28 16:10:29;;;;;;;2.83;1.95;;;28.90;53.80;;;;;;6274881;28;20041;-78
2022/08/28 16:13:31;;;;;;;2.45;2.17;;;28.80;53.60;;;;;;6274825;28;20049;-79